Salem, TX

1:49 PM CST on December 10, 2016 (GMT -0600)
Ray Branch - Lake Fork | | Change Station

Elev 420 ft 32.81 °N, 95.58 °W | Updated 6 minutes ago

Overcast
Overcast
47.1 °F
Feels Like 47 °F
N
3.0
Wind Variable Wind from SSE
Gusts 6.0 mph

Today
High -- | Low -- °F
--% Chance of Precip.
Yesterday
High -- | Low -- °F
Precip. -- in
Pressure 30.37 in
Visibility 10.0 miles
Clouds Overcast 6000 ft
Windchill 47 °F
Dew Point 29 °F
Humidity 50%
Rainfall 0.00 in
Snow Depth Not available.
7:14 AM 5:16 PM
Waxing Gibbous, 86% visible
METAR KJDD 101935Z AUTO 14006KT 10SM OVC060 07/M04 A3037 RMK AO2
Pressure 30.37 in
Visibility 10.0 miles
Clouds Overcast 6000 ft
Windchill 47 °F
Dew Point 29 °F
Humidity 50%
Rainfall 0.00 in
Snow Depth Not available.
7:14 AM 5:16 PM
Waxing Gibbous, 86% visible
METAR KJDD 101935Z AUTO 14006KT 10SM OVC060 07/M04 A3037 RMK AO2

10-Day Weather Forecast

Almanac

Astronomy

Dec. 10, 2016 Rise Set
Actual Time
Civil Twilight
Nautical Twilight
Astronomical Twilight
Moon
Length of Visible Light
Length of Day
Tomorrow will be .
, % of the Moon is Illuminated

Today's Extremes

State Highs State Lows

Community

WunderPhotos

Upload Photos

1,956,646 photos uploaded!

WunderBlog® & News

Nearby

Air Quality

  Air Quality AQ Index Pollutant
Not available.

Snow Depth

Station Depth Elevation

Earthquake Activity

City Distance Mag. Time & Date
Minimum magnitude displayed is 2.5.

Coastal Water Temperatures

Place Temperature

Stations

Nearby Weather Stations

Station Location Temp. Windchill Dew Point Humidity Wind Precip. Elev Updated Type
                   

Watches & Warnings

There are currently no watches in effect.